Thornton, CO

2:25 PM MST on January 27, 2015 (GMT -0700)
Northmoor Subdivision - Central Broomfield | Change Station
CLOSE
Current Station
Personal Weather Station
Location: Broomfield, CO
Elevation: 5384 ft
Nearby Weather Stations

Elev 5384 ft 39.94 °N, 105.05 °W | Updated 10 seconds ago

Clear
Clear
75.2 °F
Feels Like 75 °F
N
1.6
Wind Variable Wind from NNE
Gusts 6.0 mph

Today
High -- | Low -- °F
--% Chance of Precip.
Yesterday
High -- | Low -- °F
Precip. -- in
7:13 AM 5:13 PM
First Quarter, 57% visible
Pressure 30.07 in
Visibility 50.0 miles
Clouds Few 12000 ft
Scattered Clouds 20000 ft
Heat Index 75 °F
Dew Point 23 °F
Humidity 14%
Rainfall 0.00 in
Snow Depth Not available.
UV 2 out of 12
Pollen 2.70 out of 12
Air Quality Not available.
Flu Activity Not available.
METAR KBJC 272053Z 00000KT 50SM FEW120 SCT200 22/M08 A3007

More Conditions Fewer Conditions

Pressure 30.07 in
Visibility 50.0 miles
Clouds Few 12000 ft
Scattered Clouds 20000 ft
Heat Index 75 °F
Dew Point 23 °F
Humidity 14%
Rainfall 0.00 in
Snow Depth Not available.
UV 2 out of 12
Pollen 2.70 out of 12
Air Quality Not available.
Flu Activity Not available.
METAR KBJC 272053Z 00000KT 50SM FEW120 SCT200 22/M08 A3007

More Conditions Fewer Conditions

10-Day Weather Forecast

Almanac

Astronomy

Jan. 27, 2015 Rise Set
Actual Time
Civil Twilight
Nautical Twilight
Astronomical Twilight
Moon
Length of Visible Light
Length of Day
Tomorrow will be .
, % of the Moon is Illuminated

Today's Extremes

State Highs State Lows

Community

WunderPhotos

Upload Photos

1,790,914 photos uploaded!

WunderBlogs® & News

Nearby

Air Quality

  Air Quality AQ Index Pollutant
Not available.

Snow Depth

Station Depth Elevation

Earthquake Activity

City Distance Mag. Time & Date
Minimum magnitude displayed is 2.5.

Coastal Water Temperatures

Place Temperature

Nearby Weather Stations